Time,TemperatureF,DewpointF,PressureIn,WindDirection,WindDirectionDegrees,WindSpeedMPH,WindSpeedGustMPH,Humidity,HourlyPrecipIn,Conditions,Clouds,dailyrainin,SoftwareType,DateUTC
2015-01-24 00:00:00,34.1,28.9,30.58,SW,223,2.0,3.0,81,0.00,,---,0.00,VWS V14.01,2015-01-24 08:00:00,
2015-01-24 00:03:00,34.1,28.9,30.58,SW,223,2.0,3.0,81,0.00,,---,0.00,VWS V14.01,2015-01-24 08:03:00,
2015-01-24 00:10:00,33.6,28.7,30.57,North,360,0.0,3.0,82,0.00,,---,0.00,VWS V14.01,2015-01-24 08:10:00,
2015-01-24 00:13:00,33.6,28.7,30.57,North,360,0.0,3.0,82,0.00,,---,0.00,VWS V14.01,2015-01-24 08:13:00,
2015-01-24 00:33:00,33.4,28.5,30.57,SSW,202,0.0,0.0,82,0.00,,---,0.00,VWS V14.01,2015-01-24 08:33:00,
2015-01-24 00:43:00,33.5,28.6,30.57,SSW,200,0.0,0.0,82,0.00,,---,0.00,VWS V14.01,2015-01-24 08:43:00,
2015-01-24 00:53:00,33.5,28.6,30.56,SSW,200,0.0,2.0,82,0.00,,---,0.00,VWS V14.01,2015-01-24 08:53:00,
2015-01-24 01:03:00,33.3,28.4,30.57,SSW,202,0.0,2.0,82,0.00,,---,0.00,VWS V14.01,2015-01-24 09:03:00,
2015-01-24 01:13:00,33.0,28.4,30.55,North,360,0.0,3.0,83,0.00,,---,0.00,VWS V14.01,2015-01-24 09:13:00,
2015-01-24 01:23:00,33.6,28.7,30.53,SW,214,0.0,5.0,82,0.00,,---,0.00,VWS V14.01,2015-01-24 09:23:00,
2015-01-24 01:33:00,34.0,29.1,30.54,SW,214,0.0,1.0,82,0.00,,---,0.00,VWS V14.01,2015-01-24 09:33:00,
2015-01-24 01:43:00,33.6,28.7,30.54,North,360,0.0,0.0,82,0.00,,---,0.00,VWS V14.01,2015-01-24 09:43:00,
2015-01-24 01:53:00,33.5,28.6,30.56,North,360,0.0,2.0,82,0.00,,---,0.00,VWS V14.01,2015-01-24 09:53:00,
2015-01-24 02:03:00,33.9,29.0,30.55,SW,214,0.0,0.0,82,0.00,,---,0.00,VWS V14.01,2015-01-24 10:03:00,
2015-01-24 02:13:00,36.3,30.1,30.52,NNE,18,0.0,4.0,78,0.00,,---,0.00,VWS V14.01,2015-01-24 10:13:00,
2015-01-24 02:23:00,36.8,30.0,30.53,NNE,22,0.0,3.0,76,0.00,,---,0.00,VWS V14.01,2015-01-24 10:23:00,
2015-01-24 02:33:00,35.4,29.2,30.52,NNE,23,0.0,0.0,78,0.00,,---,0.00,VWS V14.01,2015-01-24 10:33:00,
2015-01-24 02:43:00,34.4,28.9,30.53,NNE,18,0.0,2.0,80,0.00,,---,0.00,VWS V14.01,2015-01-24 10:43:00,
2015-01-24 02:53:00,34.0,28.8,30.52,North,360,0.0,3.0,81,0.00,,---,0.00,VWS V14.01,2015-01-24 10:53:00,
2015-01-24 03:03:00,34.1,29.2,30.51,SSW,200,0.0,3.0,82,0.00,,---,0.00,VWS V14.01,2015-01-24 11:03:00,
2015-01-24 03:13:00,33.9,29.0,30.52,SSW,200,0.0,2.0,82,0.00,,---,0.00,VWS V14.01,2015-01-24 11:13:00,
2015-01-24 03:23:00,33.7,28.8,30.52,SSW,197,0.0,1.0,82,0.00,,---,0.00,VWS V14.01,2015-01-24 11:23:00,
2015-01-24 03:33:00,33.4,28.5,30.52,SSW,200,0.0,3.0,82,0.00,,---,0.00,VWS V14.01,2015-01-24 11:33:00,
2015-01-24 03:43:00,33.2,28.3,30.53,SSW,200,0.0,2.0,82,0.00,,---,0.00,VWS V14.01,2015-01-24 11:43:00,
2015-01-24 03:53:00,33.0,28.4,30.53,North,360,0.0,0.0,83,0.00,,---,0.00,VWS V14.01,2015-01-24 11:53:00,
2015-01-24 04:03:00,32.8,28.2,30.53,SSW,200,0.0,3.0,83,0.00,,---,0.00,VWS V14.01,2015-01-24 12:03:00,
2015-01-24 04:13:00,32.6,28.3,30.54,SSW,199,0.0,0.0,84,0.00,,---,0.00,VWS V14.01,2015-01-24 12:13:00,
2015-01-24 04:23:00,32.5,28.2,30.54,SSW,200,0.0,0.0,84,0.00,,---,0.00,VWS V14.01,2015-01-24 12:23:00,
2015-01-24 04:33:00,32.5,28.2,30.54,SSW,199,0.0,1.0,84,0.00,,---,0.00,VWS V14.01,2015-01-24 12:33:00,
2015-01-24 04:43:00,32.6,28.3,30.54,SSW,200,0.0,1.0,84,0.00,,---,0.00,VWS V14.01,2015-01-24 12:43:00,
2015-01-24 04:53:00,33.1,28.8,30.54,SSW,198,0.0,4.0,84,0.00,,---,0.00,VWS V14.01,2015-01-24 12:53:00,
2015-01-24 05:03:00,34.0,29.1,30.54,NE,42,2.0,3.0,82,0.00,,---,0.00,VWS V14.01,2015-01-24 13:03:00,
2015-01-24 05:13:00,38.0,30.5,30.54,NE,38,0.0,3.0,74,0.00,,---,0.00,VWS V14.01,2015-01-24 13:13:00,
2015-01-24 05:23:00,36.9,29.4,30.53,NE,40,0.0,0.0,74,0.00,,---,0.00,VWS V14.01,2015-01-24 13:23:00,
2015-01-24 05:33:00,35.8,29.3,30.54,NE,38,0.0,1.0,77,0.00,,---,0.00,VWS V14.01,2015-01-24 13:33:00,
2015-01-24 05:43:00,35.3,29.5,30.54,NE,40,0.0,2.0,79,0.00,,---,0.00,VWS V14.01,2015-01-24 13:43:00,
2015-01-24 05:53:00,34.6,28.8,30.53,North,360,0.0,3.0,79,0.00,,---,0.00,VWS V14.01,2015-01-24 13:53:00,
2015-01-24 06:03:00,34.0,28.5,30.56,North,360,0.0,3.0,80,0.00,,---,0.00,VWS V14.01,2015-01-24 14:03:00,
2015-01-24 06:13:00,33.4,28.2,30.57,SSE,165,0.0,0.0,81,0.00,,---,0.00,VWS V14.01,2015-01-24 14:13:00,
2015-01-24 06:23:00,33.0,28.1,30.57,SSE,164,0.0,0.0,82,0.00,,---,0.00,VWS V14.01,2015-01-24 14:23:00,
2015-01-24 06:33:00,32.6,28.0,30.57,SSE,165,0.0,3.0,83,0.00,,---,0.00,VWS V14.01,2015-01-24 14:33:00,
2015-01-24 06:43:00,32.3,27.7,30.58,SSE,167,2.0,3.0,83,0.00,,---,0.00,VWS V14.01,2015-01-24 14:43:00,
2015-01-24 06:53:00,32.0,27.4,30.58,SSE,164,2.0,3.0,83,0.00,,---,0.00,VWS V14.01,2015-01-24 14:53:00,
2015-01-24 07:03:00,31.8,27.5,30.59,SSE,165,1.0,3.0,84,0.00,,---,0.00,VWS V14.01,2015-01-24 15:03:00,
2015-01-24 07:13:00,31.5,27.5,30.59,SSE,165,1.0,3.0,85,0.00,,---,0.00,VWS V14.01,2015-01-24 15:13:00,
2015-01-24 07:23:00,31.4,27.4,30.60,SSE,165,2.0,3.0,85,0.00,,---,0.00,VWS V14.01,2015-01-24 15:23:00,
2015-01-24 07:33:00,31.3,27.3,30.60,SSE,165,2.0,3.0,85,0.00,,---,0.00,VWS V14.01,2015-01-24 15:33:00,
2015-01-24 07:43:00,31.1,27.1,30.60,SSE,163,2.0,4.0,85,0.00,,---,0.00,VWS V14.01,2015-01-24 15:43:00,
2015-01-24 07:53:00,31.0,27.0,30.60,South,188,2.0,5.0,85,0.00,,---,0.00,VWS V14.01,2015-01-24 15:53:00,
2015-01-24 08:03:00,31.0,27.3,30.61,SSW,210,3.0,4.0,86,0.00,,---,0.00,VWS V14.01,2015-01-24 16:03:00,
2015-01-24 08:13:00,31.1,27.4,30.61,SSW,210,2.0,4.0,86,0.00,,---,0.00,VWS V14.01,2015-01-24 16:13:00,
2015-01-24 08:23:00,31.2,27.5,30.61,SSW,213,2.0,4.0,86,0.00,,---,0.00,VWS V14.01,2015-01-24 16:23:00,
2015-01-24 08:33:00,31.5,27.8,30.61,SSW,211,1.0,4.0,86,0.00,,---,0.00,VWS V14.01,2015-01-24 16:33:00,
2015-01-24 08:43:00,31.9,28.2,30.60,North,360,0.0,3.0,86,0.00,,---,0.00,VWS V14.01,2015-01-24 16:43:00,
2015-01-24 08:53:00,32.4,28.7,30.60,SSW,211,0.0,3.0,86,0.00,,---,0.00,VWS V14.01,2015-01-24 16:53:00,
2015-01-24 09:03:00,33.0,29.0,30.60,SSW,213,0.0,0.0,85,0.00,,---,0.00,VWS V14.01,2015-01-24 17:03:00,
2015-01-24 09:13:00,33.7,29.7,30.58,SSW,211,0.0,0.0,85,0.00,,---,0.00,VWS V14.01,2015-01-24 17:13:00,
2015-01-24 09:23:00,34.4,30.1,30.59,SSW,212,0.0,0.0,84,0.00,,---,0.00,VWS V14.01,2015-01-24 17:23:00,
2015-01-24 09:33:00,35.0,30.4,30.58,SSW,212,0.0,0.0,83,0.00,,---,0.00,VWS V14.01,2015-01-24 17:33:00,
2015-01-24 09:43:00,36.1,31.1,30.59,North,360,0.0,0.0,82,0.00,,---,0.00,VWS V14.01,2015-01-24 17:43:00,
2015-01-24 09:53:00,36.8,31.2,30.57,SSW,211,0.0,0.0,80,0.00,,---,0.00,VWS V14.01,2015-01-24 17:53:00,
2015-01-24 10:03:00,37.7,31.8,30.57,SSW,209,0.0,0.0,79,0.00,,---,0.00,VWS V14.01,2015-01-24 18:03:00,
2015-01-24 10:13:00,38.2,31.3,30.57,SSW,213,0.0,0.0,76,0.00,,---,0.00,VWS V14.01,2015-01-24 18:13:00,
2015-01-24 10:23:00,38.7,31.8,30.57,North,360,0.0,0.0,76,0.00,,---,0.00,VWS V14.01,2015-01-24 18:23:00,
2015-01-24 10:33:00,39.0,31.4,30.57,SSW,211,0.0,0.0,74,0.00,,---,0.00,VWS V14.01,2015-01-24 18:33:00,
2015-01-24 10:43:00,39.5,32.2,30.56,SSW,211,0.0,0.0,75,0.00,,---,0.00,VWS V14.01,2015-01-24 18:43:00,
2015-01-24 10:53:00,40.5,31.9,30.55,SSW,211,0.0,0.0,71,0.00,,---,0.00,VWS V14.01,2015-01-24 18:53:00,
2015-01-24 11:03:00,41.6,32.2,30.53,SSW,211,0.0,0.0,69,0.00,,---,0.00,VWS V14.01,2015-01-24 19:03:00,
2015-01-24 11:13:00,42.5,32.3,30.53,SSW,211,0.0,0.0,67,0.00,,---,0.00,VWS V14.01,2015-01-24 19:13:00,
2015-01-24 11:23:00,42.9,32.0,30.52,SW,214,0.0,0.0,65,0.00,,---,0.00,VWS V14.01,2015-01-24 19:23:00,
2015-01-24 11:33:00,43.4,30.9,30.52,North,360,0.0,0.0,61,0.00,,---,0.00,VWS V14.01,2015-01-24 19:33:00,
2015-01-24 11:43:00,44.5,31.1,30.50,North,360,0.0,0.0,59,0.00,,---,0.00,VWS V14.01,2015-01-24 19:43:00,
2015-01-24 11:53:00,45.0,32.4,30.50,SSW,213,0.0,0.0,61,0.00,,---,0.00,VWS V14.01,2015-01-24 19:53:00,
2015-01-24 12:03:00,45.4,31.1,30.49,SSW,211,0.0,0.0,57,0.00,,---,0.00,VWS V14.01,2015-01-24 20:03:00,
2015-01-24 12:13:00,46.0,32.1,30.49,SSW,213,0.0,0.0,58,0.00,,---,0.00,VWS V14.01,2015-01-24 20:13:00,
2015-01-24 12:23:00,46.5,31.2,30.48,SSW,213,0.0,0.0,55,0.00,,---,0.00,VWS V14.01,2015-01-24 20:23:00,
2015-01-24 12:33:00,47.4,32.1,30.46,SSW,210,0.0,0.0,55,0.00,,---,0.00,VWS V14.01,2015-01-24 20:33:00,
2015-01-24 12:43:00,48.1,31.8,30.45,SSW,209,0.0,0.0,53,0.00,,---,0.00,VWS V14.01,2015-01-24 20:43:00,
2015-01-24 12:53:00,48.3,32.9,30.44,SSW,211,0.0,0.0,55,0.00,,---,0.00,VWS V14.01,2015-01-24 20:53:00,
2015-01-24 13:03:00,48.3,32.4,30.43,North,360,0.0,0.0,54,0.00,,---,0.00,VWS V14.01,2015-01-24 21:03:00,
2015-01-24 13:13:00,48.6,32.7,30.42,SSW,210,0.0,0.0,54,0.00,,---,0.00,VWS V14.01,2015-01-24 21:13:00,
2015-01-24 13:23:00,48.8,32.4,30.41,SSW,211,0.0,0.0,53,0.00,,---,0.00,VWS V14.01,2015-01-24 21:23:00,
2015-01-24 13:33:00,49.2,32.8,30.41,SSW,209,2.0,2.0,53,0.00,,---,0.00,VWS V14.01,2015-01-24 21:33:00,
2015-01-24 13:43:00,50.9,33.4,30.39,North,360,0.0,3.0,51,0.00,,---,0.00,VWS V14.01,2015-01-24 21:43:00,
2015-01-24 13:53:00,51.2,33.7,30.39,NW,306,0.0,2.0,51,0.00,,---,0.00,VWS V14.01,2015-01-24 21:53:00,
2015-01-24 14:03:00,51.7,32.1,30.38,NNE,33,0.0,4.0,47,0.00,,---,0.00,VWS V14.01,2015-01-24 22:03:00,
2015-01-24 14:13:00,51.9,32.3,30.38,NE,34,1.0,4.0,47,0.00,,---,0.00,VWS V14.01,2015-01-24 22:13:00,
2015-01-24 14:23:00,51.9,31.2,30.38,NNE,32,0.0,3.0,45,0.00,,---,0.00,VWS V14.01,2015-01-24 22:23:00,
2015-01-24 14:33:00,51.7,31.6,30.38,NE,34,1.0,3.0,46,0.00,,---,0.00,VWS V14.01,2015-01-24 22:33:00,
2015-01-24 14:43:00,51.4,30.8,30.39,NE,37,3.0,3.0,45,0.00,,---,0.00,VWS V14.01,2015-01-24 22:43:00,
2015-01-24 14:53:00,51.2,31.1,30.39,NE,42,3.0,5.0,46,0.00,,---,0.00,VWS V14.01,2015-01-24 22:53:00,
2015-01-24 15:03:00,51.2,31.1,30.40,NE,46,2.0,4.0,46,0.00,,---,0.00,VWS V14.01,2015-01-24 23:03:00,
2015-01-24 15:13:00,51.2,31.7,30.40,NE,34,0.0,4.0,47,0.00,,---,0.00,VWS V14.01,2015-01-24 23:13:00,
2015-01-24 15:23:00,51.3,31.2,30.40,NE,34,0.0,3.0,46,0.00,,---,0.00,VWS V14.01,2015-01-24 23:23:00,
2015-01-24 15:33:00,50.8,31.3,30.39,NE,40,2.0,4.0,47,0.00,,---,0.00,VWS V14.01,2015-01-24 23:33:00,
2015-01-24 15:43:00,50.6,30.6,30.39,NNE,30,1.0,4.0,46,0.00,,---,0.00,VWS V14.01,2015-01-24 23:43:00,
2015-01-24 15:53:00,50.6,30.6,30.39,NNE,25,0.0,3.0,46,0.00,,---,0.00,VWS V14.01,2015-01-24 23:53:00,
2015-01-24 16:03:00,49.7,32.8,30.41,NNE,25,0.0,1.0,52,0.00,,---,0.00,VWS V14.01,2015-01-25 00:03:00,
2015-01-24 16:13:00,47.8,33.8,30.41,NNE,25,0.0,3.0,58,0.00,,---,0.00,VWS V14.01,2015-01-25 00:13:00,
2015-01-24 16:23:00,46.6,33.5,30.42,NNE,25,0.0,2.0,60,0.00,,---,0.00,VWS V14.01,2015-01-25 00:23:00,
2015-01-24 16:33:00,45.8,33.5,30.42,NNE,25,0.0,2.0,62,0.00,,---,0.00,VWS V14.01,2015-01-25 00:33:00,
2015-01-24 16:43:00,45.1,32.9,30.42,NNE,24,0.0,0.0,62,0.00,,---,0.00,VWS V14.01,2015-01-25 00:43:00,
2015-01-24 16:53:00,45.1,32.5,30.43,NNE,25,0.0,4.0,61,0.00,,---,0.00,VWS V14.01,2015-01-25 00:53:00,
2015-01-24 17:03:00,45.0,32.8,30.42,NNE,25,0.0,1.0,62,0.00,,---,0.00,VWS V14.01,2015-01-25 01:03:00,
2015-01-24 17:13:00,46.7,31.4,30.42,NNE,24,2.0,5.0,55,0.00,,---,0.00,VWS V14.01,2015-01-25 01:13:00,
2015-01-24 17:23:00,48.2,31.9,30.41,NNE,24,2.0,4.0,53,0.00,,---,0.00,VWS V14.01,2015-01-25 01:23:00,
2015-01-24 17:33:00,48.6,32.3,30.42,NNE,32,2.0,4.0,53,0.00,,---,0.00,VWS V14.01,2015-01-25 01:33:00,
2015-01-24 17:43:00,48.3,32.0,30.42,NNE,29,0.0,4.0,53,0.00,,---,0.00,VWS V14.01,2015-01-25 01:43:00,
2015-01-24 17:53:00,46.9,31.6,30.43,NNE,28,0.0,3.0,55,0.00,,---,0.00,VWS V14.01,2015-01-25 01:53:00,
2015-01-24 18:03:00,47.2,31.9,30.44,NNE,24,3.0,5.0,55,0.00,,---,0.00,VWS V14.01,2015-01-25 02:03:00,
2015-01-24 18:13:00,47.2,31.4,30.44,NNE,25,2.0,3.0,54,0.00,,---,0.00,VWS V14.01,2015-01-25 02:13:00,
2015-01-24 18:23:00,47.6,31.3,30.44,NNE,24,2.0,4.0,53,0.00,,---,0.00,VWS V14.01,2015-01-25 02:23:00,
2015-01-24 18:33:00,47.0,31.7,30.45,NNE,24,0.0,3.0,55,0.00,,---,0.00,VWS V14.01,2015-01-25 02:33:00,
2015-01-24 18:43:00,45.4,31.5,30.45,NNE,26,0.0,3.0,58,0.00,,---,0.00,VWS V14.01,2015-01-25 02:43:00,
2015-01-24 18:53:00,43.6,30.6,30.46,NNE,27,0.0,0.0,60,0.00,,---,0.00,VWS V14.01,2015-01-25 02:53:00,
2015-01-24 19:03:00,42.2,30.5,30.49,NNE,27,0.0,0.0,63,0.00,,---,0.00,VWS V14.01,2015-01-25 03:03:00,
2015-01-24 19:13:00,41.3,30.1,30.49,NNE,27,0.0,0.0,64,0.00,,---,0.00,VWS V14.01,2015-01-25 03:13:00,
2015-01-24 19:23:00,40.8,30.3,30.50,NNE,27,0.0,0.0,66,0.00,,---,0.00,VWS V14.01,2015-01-25 03:23:00,
2015-01-24 19:33:00,40.5,30.4,30.50,NNE,27,0.0,0.0,67,0.00,,---,0.00,VWS V14.01,2015-01-25 03:33:00,
2015-01-24 19:43:00,40.1,30.8,30.51,NNE,28,0.0,2.0,69,0.00,,---,0.00,VWS V14.01,2015-01-25 03:43:00,
2015-01-24 19:53:00,40.2,31.2,30.51,NNE,28,0.0,2.0,70,0.00,,---,0.00,VWS V14.01,2015-01-25 03:53:00,
2015-01-24 20:03:00,40.0,30.7,30.50,NNE,28,0.0,2.0,69,0.00,,---,0.00,VWS V14.01,2015-01-25 04:03:00,
2015-01-24 20:13:00,39.7,30.7,30.50,NNW,331,0.0,3.0,70,0.00,,---,0.00,VWS V14.01,2015-01-25 04:13:00,
2015-01-24 20:23:00,39.7,30.4,30.50,WSW,238,2.0,4.0,69,0.00,,---,0.00,VWS V14.01,2015-01-25 04:23:00,
2015-01-24 20:33:00,40.6,30.5,30.49,SW,234,0.0,3.0,67,0.00,,---,0.00,VWS V14.01,2015-01-25 04:33:00,
2015-01-24 20:43:00,41.0,30.9,30.49,North,360,0.0,3.0,67,0.00,,---,0.00,VWS V14.01,2015-01-25 04:43:00,
2015-01-24 20:53:00,41.8,30.5,30.49,WSW,238,0.0,2.0,64,0.00,,---,0.00,VWS V14.01,2015-01-25 04:53:00,
2015-01-24 21:03:00,41.8,30.9,30.49,WSW,238,0.0,2.0,65,0.00,,---,0.00,VWS V14.01,2015-01-25 05:03:00,
2015-01-24 21:13:00,41.4,30.5,30.47,WSW,240,1.0,2.0,65,0.00,,---,0.00,VWS V14.01,2015-01-25 05:13:00,